Summer Point, Vermont
Current Conditions -  °F | °C
As of 2:15 PM on Friday 24 Oct 2014 (Local Time) from K6B0 Reporting Station
Overcast Overcast  
Wind Chill: 40°   Ceiling: 2300
Heat Index: 46°   Visibility: 10mi
Dew Point: 44°   Wind: 13mph
Humidity: 96%   Direction: 360°N
Pressure: 29.81"   Gusts: 20mph
Location:  44.0804°N, 73.3324°W
Report Text: K6B0 241815Z AUTO 36011G17KT 10SM SCT015 OVC023 08/07 A2981 RMK AO2 T00750069
Loading
Personal Weather Stations






























Interactive Weather Map
Tropical Storm Tracking
New forecast layout! Learn more

10-Day Weather Forecast

Advertisements
Track Severe Weather on mobile